createdAt,value
2022-10-23T00:00:28.142Z,98.8
2022-10-23T00:01:38.253Z,98.9
2022-10-23T00:02:48.377Z,99.1
2022-10-23T00:03:58.482Z,98.9
2022-10-23T00:05:08.603Z,98.7
2022-10-23T00:06:18.722Z,98.5
2022-10-23T00:07:28.843Z,98.3
2022-10-23T00:08:38.967Z,98.3
2022-10-23T00:09:48.104Z,98.7
2022-10-23T00:10:58.206Z,98.6
2022-10-23T00:12:08.327Z,98.2
2022-10-23T00:13:18.451Z,98.7
2022-10-23T00:15:38.684Z,98.9
2022-10-23T00:16:48.807Z,98.9
2022-10-23T00:17:58.914Z,99
2022-10-23T00:19:09.278Z,99.1
2022-10-23T00:20:19.150Z,99.1
2022-10-23T00:21:29.272Z,98.9
2022-10-23T00:22:39.394Z,99
2022-10-23T00:23:49.509Z,99.1
2022-10-23T00:24:58.641Z,98.7
2022-10-23T00:26:08.758Z,98.9
2022-10-23T00:27:18.867Z,98.8
2022-10-23T00:28:28.992Z,98.5
2022-10-23T00:29:39.109Z,98.9
2022-10-23T00:30:49.466Z,99
2022-10-23T00:31:59.343Z,99.1
2022-10-23T00:33:09.459Z,99.3
2022-10-23T00:34:18.606Z,99.2
2022-10-23T00:35:27.736Z,99.2
2022-10-23T00:36:37.123Z,99.1
2022-10-23T00:37:46.019Z,98.7
2022-10-23T00:38:56.140Z,98.5
2022-10-23T00:40:06.248Z,98.4
2022-10-23T00:41:16.374Z,98.3
2022-10-23T00:42:26.481Z,98.3
2022-10-23T00:43:36.594Z,98.1
2022-10-23T00:44:46.722Z,98.1
2022-10-23T00:45:56.842Z,98.2
2022-10-23T00:47:06.961Z,98.2
2022-10-23T00:48:17.084Z,98.3
2022-10-23T00:49:27.188Z,98
2022-10-23T00:50:37.307Z,98.2
2022-10-23T00:51:47.423Z,98.3
2022-10-23T00:52:56.558Z,98
2022-10-23T00:54:06.680Z,97.7
2022-10-23T00:55:16.797Z,98
2022-10-23T00:56:26.915Z,97.7
2022-10-23T00:57:37.026Z,97.4
2022-10-23T00:58:47.142Z,98.2
2022-10-23T00:59:57.258Z,98.6
2022-10-23T01:02:17.496Z,99.2
2022-10-23T01:03:27.620Z,99.1
2022-10-23T01:04:37.737Z,98.8
2022-10-23T01:05:47.848Z,99.3
2022-10-23T01:06:57.971Z,99.4
2022-10-23T01:08:07.102Z,99.2
2022-10-23T01:09:17.227Z,99.2
2022-10-23T01:10:27.580Z,99.8
2022-10-23T01:11:37.458Z,99.5
2022-10-23T01:12:47.577Z,100
2022-10-23T01:13:57.698Z,100
2022-10-23T01:15:07.802Z,100
2022-10-23T01:16:17.924Z,100
2022-10-23T01:17:28.282Z,100
2022-10-23T01:18:38.158Z,100
2022-10-23T01:19:48.278Z,100
2022-10-23T01:20:58.405Z,100
2022-10-23T01:22:08.525Z,100
2022-10-23T01:23:17.658Z,100
2022-10-23T01:25:36.913Z,100
2022-10-23T01:26:46.052Z,100
2022-10-23T01:27:56.170Z,100
2022-10-23T01:29:05.306Z,100
2022-10-23T01:30:14.442Z,100
2022-10-23T01:31:24.561Z,100
2022-10-23T01:32:34.683Z,100
2022-10-23T01:33:44.807Z,100
2022-10-23T01:34:54.907Z,100
2022-10-23T01:36:05.026Z,100
2022-10-23T01:37:15.149Z,100
2022-10-23T01:38:25.272Z,100
2022-10-23T01:39:35.378Z,100
2022-10-23T01:40:45.503Z,100
2022-10-23T01:41:55.624Z,100
2022-10-23T01:43:05.733Z,100
2022-10-23T01:44:15.854Z,100
2022-10-23T01:45:24.986Z,100
2022-10-23T01:46:35.105Z,100
2022-10-23T01:47:45.220Z,100
2022-10-23T01:48:55.349Z,100
2022-10-23T01:50:05.454Z,100
2022-10-23T01:51:15.576Z,100
2022-10-23T01:52:25.698Z,100
2022-10-23T01:53:35.819Z,100
2022-10-23T01:54:45.930Z,100
2022-10-23T01:55:56.055Z,100
2022-10-23T01:57:06.174Z,100
2022-10-23T01:59:26.399Z,100
2022-10-23T02:00:35.541Z,100
2022-10-23T02:01:45.657Z,100
2022-10-23T02:02:55.782Z,100
2022-10-23T02:04:05.883Z,100
2022-10-23T02:05:15.998Z,100
2022-10-23T02:06:26.124Z,100
2022-10-23T02:07:36.243Z,100
2022-10-23T02:08:46.609Z,100
2022-10-23T02:09:56.485Z,100
2022-10-23T02:11:05.613Z,100
2022-10-23T02:12:14.766Z,100
2022-10-23T02:13:24.879Z,100
2022-10-23T02:14:34.994Z,100
2022-10-23T02:15:45.115Z,100
2022-10-23T02:16:54.245Z,100
2022-10-23T02:18:03.379Z,100
2022-10-23T02:19:13.504Z,100
2022-10-23T02:20:23.625Z,100
2022-10-23T02:21:33.980Z,100
2022-10-23T02:22:43.857Z,100
2022-10-23T02:23:53.983Z,100
2022-10-23T02:25:04.084Z,100
2022-10-23T02:26:14.209Z,100
2022-10-23T02:27:24.320Z,100
2022-10-23T02:28:34.454Z,100
2022-10-23T02:29:44.563Z,100
2022-10-23T02:30:54.680Z,100
2022-10-23T02:32:04.806Z,100
2022-10-23T02:33:13.923Z,100
2022-10-23T02:34:24.040Z,100
2022-10-23T02:35:34.164Z,100
2022-10-23T02:36:44.287Z,100
2022-10-23T02:37:54.406Z,100
2022-10-23T02:39:04.525Z,100
2022-10-23T02:40:14.646Z,100
2022-10-23T02:41:24.746Z,100
2022-10-23T02:42:34.872Z,100
2022-10-23T02:44:55.102Z,100
2022-10-23T02:46:05.219Z,100
2022-10-23T02:47:15.339Z,100
2022-10-23T02:48:25.580Z,100
2022-10-23T02:49:35.701Z,100
2022-10-23T02:50:46.056Z,100
2022-10-23T02:51:55.943Z,100
2022-10-23T02:53:06.050Z,100
2022-10-23T02:54:16.179Z,100
2022-10-23T02:55:26.283Z,100
2022-10-23T02:56:36.404Z,100
2022-10-23T02:57:46.530Z,100
2022-10-23T02:58:56.647Z,100
2022-10-23T03:00:06.769Z,100
2022-10-23T03:01:16.872Z,100
2022-10-23T03:02:26.990Z,100
2022-10-23T03:03:37.233Z,100
2022-10-23T03:04:47.357Z,100
2022-10-23T03:05:57.476Z,99.8
2022-10-23T03:07:07.577Z,100
2022-10-23T03:08:17.715Z,100
2022-10-23T03:09:27.818Z,100
2022-10-23T03:10:37.940Z,100
2022-10-23T03:11:48.055Z,100
2022-10-23T03:12:58.183Z,100
2022-10-23T03:14:08.291Z,100
2022-10-23T03:15:18.410Z,100
2022-10-23T03:16:28.528Z,100
2022-10-23T03:17:38.642Z,100
2022-10-23T03:18:47.782Z,100
2022-10-23T03:19:57.907Z,100
2022-10-23T03:21:08.020Z,100
2022-10-23T03:22:18.141Z,100
2022-10-23T03:23:28.258Z,100
2022-10-23T03:24:38.359Z,100
2022-10-23T03:25:48.477Z,100
2022-10-23T03:26:58.606Z,100
2022-10-23T03:29:17.866Z,100
2022-10-23T03:30:27.018Z,100
2022-10-23T03:31:36.144Z,100
2022-10-23T03:33:56.369Z,100
2022-10-23T03:35:05.522Z,100
2022-10-23T03:36:14.659Z,100
2022-10-23T03:37:24.778Z,100
2022-10-23T03:38:34.899Z,100
2022-10-23T03:39:45.006Z,100
2022-10-23T03:40:55.123Z,100
2022-10-23T03:42:05.240Z,100
2022-10-23T03:43:15.363Z,100
2022-10-23T03:44:25.483Z,100
2022-10-23T03:45:35.603Z,100
2022-10-23T03:46:45.714Z,100
2022-10-23T03:47:55.841Z,100
2022-10-23T03:49:05.944Z,100
2022-10-23T03:50:16.071Z,100
2022-10-23T03:51:25.209Z,100
2022-10-23T03:52:35.323Z,100
2022-10-23T03:53:45.434Z,100
2022-10-23T03:54:55.559Z,100
2022-10-23T03:56:05.681Z,100
2022-10-23T03:57:15.804Z,100
2022-10-23T04:00:46.388Z,100
2022-10-23T04:01:56.243Z,100
2022-10-23T04:03:05.382Z,100
2022-10-23T04:04:14.516Z,100
2022-10-23T04:05:23.672Z,100
2022-10-23T04:06:32.802Z,100
2022-10-23T04:07:42.923Z,100
2022-10-23T04:08:53.042Z,100
2022-10-23T04:10:03.162Z,100
2022-10-23T04:11:13.269Z,100
2022-10-23T04:12:23.392Z,100
2022-10-23T04:13:33.498Z,100
2022-10-23T04:14:43.625Z,100
2022-10-23T04:15:53.748Z,100
2022-10-23T04:17:03.853Z,100
2022-10-23T04:18:13.968Z,100
2022-10-23T04:19:24.086Z,100
2022-10-23T04:20:34.216Z,100
2022-10-23T04:21:43.349Z,100
2022-10-23T04:22:53.463Z,100
2022-10-23T04:24:03.591Z,100
2022-10-23T04:25:13.708Z,100
2022-10-23T04:26:23.819Z,100
2022-10-23T04:27:33.941Z,100
2022-10-23T04:28:44.050Z,100
2022-10-23T04:29:54.161Z,100
2022-10-23T04:31:04.278Z,100
2022-10-23T04:32:14.402Z,100
2022-10-23T04:33:24.531Z,100
2022-10-23T04:34:34.633Z,100
2022-10-23T04:35:44.759Z,100
2022-10-23T04:36:53.894Z,100
2022-10-23T04:38:04.001Z,100
2022-10-23T04:39:14.129Z,100
2022-10-23T04:40:24.247Z,100
2022-10-23T04:41:34.373Z,100
2022-10-23T04:42:44.478Z,100
2022-10-23T04:43:54.606Z,100
2022-10-23T04:45:04.709Z,100
2022-10-23T04:46:14.839Z,100
2022-10-23T04:47:24.952Z,100
2022-10-23T04:48:35.062Z,100
2022-10-23T04:49:45.187Z,100
2022-10-23T04:50:55.313Z,100
2022-10-23T04:52:04.443Z,100
2022-10-23T04:53:14.548Z,100
2022-10-23T04:55:34.788Z,100
2022-10-23T04:56:44.908Z,100
2022-10-23T04:59:05.151Z,100
2022-10-23T05:00:15.270Z,100
2022-10-23T05:01:25.376Z,100
2022-10-23T05:02:35.506Z,100
2022-10-23T05:03:45.614Z,100
2022-10-23T05:04:55.739Z,100
2022-10-23T05:06:05.858Z,100
2022-10-23T05:07:14.990Z,100
2022-10-23T05:08:25.370Z,100
2022-10-23T05:09:35.214Z,100
2022-10-23T05:10:45.344Z,100
2022-10-23T05:11:55.460Z,100
2022-10-23T05:13:05.852Z,100
2022-10-23T05:14:15.696Z,100
2022-10-23T05:15:25.818Z,100
2022-10-23T05:16:35.924Z,100
2022-10-23T05:18:56.156Z,100
2022-10-23T05:20:05.312Z,100
2022-10-23T05:21:14.444Z,100
2022-10-23T05:22:24.566Z,100
2022-10-23T05:23:34.690Z,100
2022-10-23T05:24:44.809Z,100
2022-10-23T05:25:54.909Z,100
2022-10-23T05:27:05.038Z,100
2022-10-23T05:30:35.394Z,100
2022-10-23T05:31:45.511Z,100
2022-10-23T05:32:55.625Z,100
2022-10-23T05:34:05.749Z,100
2022-10-23T05:36:25.012Z,100
2022-10-23T05:37:34.145Z,100
2022-10-23T05:38:43.278Z,100
2022-10-23T05:39:53.408Z,100
2022-10-23T05:41:03.512Z,100
2022-10-23T05:42:13.627Z,100
2022-10-23T05:43:23.752Z,100
2022-10-23T05:44:33.876Z,100
2022-10-23T05:45:43.982Z,100
2022-10-23T05:46:54.107Z,100
2022-10-23T05:48:04.218Z,100
2022-10-23T05:49:14.334Z,100
2022-10-23T05:50:23.745Z,100
2022-10-23T05:51:32.623Z,100
2022-10-23T05:52:42.738Z,100
2022-10-23T05:53:52.857Z,100
2022-10-23T05:55:02.959Z,100
2022-10-23T05:56:13.079Z,100
2022-10-23T05:57:23.203Z,100
2022-10-23T05:58:33.332Z,100
2022-10-23T05:59:43.439Z,100
2022-10-23T06:00:53.564Z,100
2022-10-23T06:02:03.667Z,100
2022-10-23T06:03:13.931Z,100
2022-10-23T06:04:23.064Z,100
2022-10-23T06:05:33.187Z,100
2022-10-23T06:06:43.309Z,100
2022-10-23T06:07:53.429Z,100
2022-10-23T06:09:03.551Z,100
2022-10-23T06:10:13.659Z,100
2022-10-23T06:11:23.776Z,100
2022-10-23T06:12:33.902Z,100
2022-10-23T06:13:44.010Z,100
2022-10-23T06:14:54.143Z,100
2022-10-23T06:16:04.505Z,100
2022-10-23T06:17:14.375Z,100
2022-10-23T06:18:24.485Z,100
2022-10-23T06:19:33.619Z,100
2022-10-23T06:20:43.740Z,100
2022-10-23T06:21:53.866Z,100
2022-10-23T06:23:03.974Z,100
2022-10-23T06:24:14.082Z,100
2022-10-23T06:25:24.201Z,100
2022-10-23T06:26:34.323Z,100
2022-10-23T06:27:44.437Z,100
2022-10-23T06:28:54.566Z,100
2022-10-23T06:30:04.689Z,100
2022-10-23T06:31:14.791Z,100
2022-10-23T06:32:24.915Z,100
2022-10-23T06:33:35.040Z,100
2022-10-23T06:34:44.158Z,100
2022-10-23T06:35:54.283Z,100
2022-10-23T06:37:04.405Z,100
2022-10-23T06:38:14.525Z,100
2022-10-23T06:40:34.756Z,100
2022-10-23T06:42:54.980Z,100
2022-10-23T06:44:05.106Z,100
2022-10-23T06:45:15.231Z,100
2022-10-23T06:46:25.352Z,100
2022-10-23T06:47:34.490Z,100
2022-10-23T06:48:43.630Z,100
2022-10-23T06:49:52.764Z,100
2022-10-23T06:51:01.888Z,100
2022-10-23T06:52:12.010Z,100
2022-10-23T06:53:22.129Z,100
2022-10-23T06:54:32.245Z,100
2022-10-23T06:55:42.363Z,100
2022-10-23T06:56:52.492Z,100
2022-10-23T06:58:02.602Z,100
2022-10-23T06:59:12.724Z,100
2022-10-23T07:00:22.848Z,100
2022-10-23T07:01:32.967Z,100
2022-10-23T07:03:53.199Z,100
2022-10-23T07:05:03.302Z,100
2022-10-23T07:06:12.449Z,100
2022-10-23T07:07:22.570Z,100
2022-10-23T07:08:32.682Z,100
2022-10-23T07:09:42.796Z,100
2022-10-23T07:10:52.921Z,100
2022-10-23T07:12:03.035Z,100
2022-10-23T07:13:13.140Z,100
2022-10-23T07:14:23.269Z,100
2022-10-23T07:15:33.386Z,100
2022-10-23T07:16:43.497Z,100
2022-10-23T07:17:53.625Z,100
2022-10-23T07:19:03.728Z,100
2022-10-23T07:20:13.853Z,100
2022-10-23T07:21:22.986Z,100
2022-10-23T07:22:33.111Z,100
2022-10-23T07:23:43.228Z,100
2022-10-23T07:24:53.335Z,100
2022-10-23T07:26:03.453Z,100
2022-10-23T07:27:12.595Z,100
2022-10-23T07:28:21.742Z,100
2022-10-23T07:29:31.864Z,100
2022-10-23T07:30:42.235Z,100
2022-10-23T07:31:51.115Z,100
2022-10-23T07:33:00.248Z,100
2022-10-23T07:34:10.369Z,100
2022-10-23T07:35:20.481Z,100
2022-10-23T07:36:30.599Z,100
2022-10-23T07:37:40.721Z,100
2022-10-23T07:38:50.846Z,100
2022-10-23T07:40:00.964Z,100
2022-10-23T07:41:11.081Z,100
2022-10-23T07:42:21.184Z,100
2022-10-23T07:43:31.306Z,100
2022-10-23T07:44:41.435Z,100
2022-10-23T07:45:51.554Z,100
2022-10-23T07:47:01.658Z,100
2022-10-23T07:48:10.791Z,100
2022-10-23T07:49:20.913Z,100
2022-10-23T07:50:31.038Z,100
2022-10-23T07:51:41.149Z,100
2022-10-23T07:52:51.272Z,100
2022-10-23T07:54:01.391Z,100
2022-10-23T07:55:11.509Z,100
2022-10-23T07:56:21.628Z,100
2022-10-23T07:57:31.731Z,100
2022-10-23T07:58:41.852Z,100
2022-10-23T07:59:51.976Z,100
2022-10-23T08:01:02.090Z,100
2022-10-23T08:02:12.205Z,100
2022-10-23T08:03:21.335Z,99.8
2022-10-23T08:04:31.454Z,100
2022-10-23T08:05:41.570Z,100
2022-10-23T08:06:51.695Z,100
2022-10-23T08:08:01.817Z,100
2022-10-23T08:09:10.947Z,99.8
2022-10-23T08:10:20.087Z,100
2022-10-23T08:11:29.235Z,100
2022-10-23T08:12:38.364Z,100
2022-10-23T08:13:48.486Z,100
2022-10-23T08:14:58.594Z,100
2022-10-23T08:16:08.717Z,100
2022-10-23T08:17:18.842Z,99.8
2022-10-23T08:18:28.946Z,100
2022-10-23T08:19:39.065Z,100
2022-10-23T08:20:49.184Z,100
2022-10-23T08:21:59.300Z,100
2022-10-23T08:23:09.419Z,100
2022-10-23T08:24:19.798Z,100
2022-10-23T08:25:29.653Z,100
2022-10-23T08:26:39.770Z,100
2022-10-23T08:27:48.920Z,100
2022-10-23T08:28:59.037Z,100
2022-10-23T08:30:09.147Z,100
2022-10-23T08:31:19.270Z,100
2022-10-23T08:32:29.390Z,100
2022-10-23T08:33:39.496Z,100
2022-10-23T08:34:49.612Z,100
2022-10-23T08:35:58.760Z,100
2022-10-23T08:37:08.884Z,99.7
2022-10-23T08:38:18.016Z,99.7
2022-10-23T08:39:27.150Z,99.9
2022-10-23T08:40:37.269Z,100
2022-10-23T08:41:47.392Z,99.8
2022-10-23T08:42:57.504Z,99.7
2022-10-23T08:44:07.627Z,100
2022-10-23T08:46:27.874Z,100
2022-10-23T08:47:37.981Z,100
2022-10-23T08:48:48.108Z,100
2022-10-23T08:49:58.224Z,99.8
2022-10-23T08:51:08.327Z,100
2022-10-23T08:52:18.445Z,100
2022-10-23T08:53:28.568Z,100
2022-10-23T08:54:37.693Z,100
2022-10-23T08:55:47.818Z,99.5
2022-10-23T08:56:57.942Z,99.5
2022-10-23T08:58:08.047Z,99.2
2022-10-23T08:59:18.424Z,99.8
2022-10-23T09:00:28.283Z,99.5
2022-10-23T09:01:38.399Z,99.4
2022-10-23T09:02:48.532Z,99.3
2022-10-23T09:03:57.672Z,98.4
2022-10-23T09:05:06.813Z,98.3
2022-10-23T09:07:27.041Z,98.8
2022-10-23T09:08:37.157Z,98.8
2022-10-23T09:09:46.296Z,99.5
2022-10-23T09:12:05.547Z,99.8
2022-10-23T09:13:15.670Z,99.6
2022-10-23T09:14:25.788Z,99.5
2022-10-23T09:15:34.924Z,100
2022-10-23T09:16:45.052Z,99.7
2022-10-23T09:17:55.161Z,99.5
2022-10-23T09:19:05.279Z,99.3
2022-10-23T09:20:15.400Z,99.5
2022-10-23T09:21:25.517Z,99
2022-10-23T09:22:35.633Z,98.9
2022-10-23T09:23:45.739Z,98.2
2022-10-23T09:24:55.867Z,97.7
2022-10-23T09:26:05.990Z,98.1
2022-10-23T09:27:16.105Z,98.2
2022-10-23T09:28:26.214Z,99
2022-10-23T09:29:36.343Z,99.1
2022-10-23T09:30:45.461Z,99.1
2022-10-23T09:31:55.586Z,98.5
2022-10-23T09:33:05.711Z,98
2022-10-23T09:34:16.071Z,97.3
2022-10-23T09:35:25.930Z,98
2022-10-23T09:36:36.057Z,97.9
2022-10-23T09:37:46.183Z,97.5
2022-10-23T09:38:56.298Z,97.9
2022-10-23T09:40:06.419Z,97.8
2022-10-23T09:41:16.520Z,97.5
2022-10-23T09:42:26.640Z,97.3
2022-10-23T09:43:36.758Z,97.8
2022-10-23T09:44:46.871Z,97.9
2022-10-23T09:45:56.006Z,97.3
2022-10-23T09:48:16.259Z,97.7
2022-10-23T09:49:26.365Z,97.3
2022-10-23T09:50:36.489Z,97.6
2022-10-23T09:51:46.608Z,97.4
2022-10-23T09:52:56.726Z,97.4
2022-10-23T09:54:06.828Z,97.5
2022-10-23T09:55:16.955Z,97.8
2022-10-23T09:56:27.075Z,97.5
2022-10-23T09:57:37.184Z,97
2022-10-23T09:58:47.316Z,97
2022-10-23T09:59:57.421Z,97
2022-10-23T10:01:06.551Z,97.3
2022-10-23T10:02:16.677Z,96.7
2022-10-23T10:03:26.802Z,96.7
2022-10-23T10:04:36.906Z,96.2
2022-10-23T10:05:47.027Z,96.3
2022-10-23T10:06:56.181Z,96.4
2022-10-23T10:08:05.304Z,96.2
2022-10-23T10:09:14.454Z,96.2
2022-10-23T10:10:23.590Z,96.1
2022-10-23T10:11:33.701Z,96.4
2022-10-23T10:12:43.822Z,95.8
2022-10-23T10:13:53.929Z,95.9
2022-10-23T10:15:04.047Z,95.9
2022-10-23T10:16:14.171Z,95.2
2022-10-23T10:17:24.288Z,95
2022-10-23T10:18:34.410Z,95.1
2022-10-23T10:19:44.533Z,94.5
2022-10-23T10:22:04.761Z,94.2
2022-10-23T10:23:14.869Z,94
2022-10-23T10:24:24.994Z,93.3
2022-10-23T10:25:34.129Z,93.1
2022-10-23T10:26:44.236Z,93.3
2022-10-23T10:27:54.369Z,93.5
2022-10-23T10:29:04.488Z,93.2
2022-10-23T10:30:14.597Z,93.2
2022-10-23T10:31:24.719Z,93.1
2022-10-23T10:32:35.087Z,93.3
2022-10-23T10:33:44.958Z,93.5
2022-10-23T10:34:55.078Z,93.9
2022-10-23T10:36:05.181Z,93.8
2022-10-23T10:37:15.308Z,93.7
2022-10-23T10:38:25.416Z,93.5
2022-10-23T10:39:35.539Z,94.3
2022-10-23T10:40:44.669Z,94.4
2022-10-23T10:41:54.792Z,93.8
2022-10-23T10:43:04.899Z,93
2022-10-23T10:44:15.277Z,93.2
2022-10-23T10:45:25.141Z,93.5
2022-10-23T10:46:35.514Z,92.9
2022-10-23T10:47:45.378Z,92.8
2022-10-23T10:48:55.501Z,92.5
2022-10-23T10:50:05.608Z,91.8
2022-10-23T10:52:25.845Z,91.6
2022-10-23T10:53:35.963Z,91
2022-10-23T10:54:46.082Z,91.1
2022-10-23T10:55:55.231Z,91.4
2022-10-23T10:58:14.479Z,89.8
2022-10-23T10:59:24.605Z,90.8
2022-10-23T11:00:34.722Z,91.8
2022-10-23T11:01:44.833Z,91.7
2022-10-23T11:02:53.982Z,91.1
2022-10-23T11:04:03.105Z,91.5
2022-10-23T11:05:13.227Z,90.2
2022-10-23T11:06:23.347Z,90.3
2022-10-23T11:07:33.471Z,89.9
2022-10-23T11:08:43.573Z,90.2
2022-10-23T11:09:53.688Z,89.6
2022-10-23T11:11:03.812Z,89.9
2022-10-23T11:12:13.000Z,89.9
2022-10-23T11:13:24.057Z,90
2022-10-23T11:14:34.175Z,90.2
2022-10-23T11:15:44.277Z,89.9
2022-10-23T11:16:54.405Z,90.3
2022-10-23T11:18:04.523Z,90.2
2022-10-23T11:19:13.661Z,89.2
2022-10-23T11:20:23.782Z,89
2022-10-23T11:22:44.013Z,89.2
2022-10-23T11:25:04.244Z,88.7
2022-10-23T11:26:13.381Z,88.5
2022-10-23T11:27:22.519Z,88.6
2022-10-23T11:28:32.898Z,88.3
2022-10-23T11:29:42.748Z,88.7
2022-10-23T11:33:13.359Z,88.4
2022-10-23T11:34:23.218Z,88.6
2022-10-23T11:35:33.344Z,88.9
2022-10-23T11:36:43.456Z,88.8
2022-10-23T11:37:53.585Z,88.9
2022-10-23T11:39:03.690Z,88.1
2022-10-23T11:40:13.818Z,88.4
2022-10-23T11:41:22.953Z,88.7
2022-10-23T11:42:32.093Z,88.3
2022-10-23T11:43:42.216Z,87.8
2022-10-23T11:44:52.329Z,88.1
2022-10-23T11:46:02.436Z,88.1
2022-10-23T11:47:12.563Z,87.8
2022-10-23T11:48:22.670Z,87.6
2022-10-23T11:49:32.787Z,87.1
2022-10-23T11:50:42.908Z,86.6
2022-10-23T11:51:53.037Z,86.5
2022-10-23T11:53:03.146Z,86.2
2022-10-23T11:54:12.541Z,85.9
2022-10-23T11:55:21.428Z,85.6
2022-10-23T11:56:31.550Z,85
2022-10-23T11:57:41.652Z,84.4
2022-10-23T11:58:51.775Z,84.4
2022-10-23T12:00:01.898Z,83.4
2022-10-23T12:01:12.019Z,84
2022-10-23T12:02:22.140Z,84
2022-10-23T12:03:32.249Z,83.7
2022-10-23T12:04:42.371Z,84.1
2022-10-23T12:05:52.478Z,84.5
2022-10-23T12:07:01.629Z,83.9
2022-10-23T12:08:10.772Z,83.3
2022-10-23T12:09:20.879Z,83.3
2022-10-23T12:10:31.005Z,83
2022-10-23T12:11:41.106Z,83.2
2022-10-23T12:12:51.484Z,82.8
2022-10-23T12:14:01.348Z,82.3
2022-10-23T12:15:11.467Z,82.3
2022-10-23T12:16:21.577Z,81.2
2022-10-23T12:17:31.703Z,82.2
2022-10-23T12:18:42.069Z,82.7
2022-10-23T12:21:02.058Z,81.8
2022-10-23T12:22:12.165Z,82.7
2022-10-23T12:23:21.307Z,82.3
2022-10-23T12:24:31.435Z,81.7
2022-10-23T12:25:41.544Z,81.5
2022-10-23T12:26:51.653Z,82.5
2022-10-23T12:28:01.769Z,81.7
2022-10-23T12:29:11.895Z,81.4
2022-10-23T12:30:22.015Z,81.5
2022-10-23T12:31:32.131Z,81
2022-10-23T12:32:41.285Z,80.9
2022-10-23T12:33:50.400Z,80.9
2022-10-23T12:34:59.560Z,80.6
2022-10-23T12:36:08.689Z,80.4
2022-10-23T12:37:18.815Z,80.8
2022-10-23T12:38:28.928Z,81
2022-10-23T12:39:39.052Z,80.8
2022-10-23T12:40:49.158Z,81
2022-10-23T12:41:59.277Z,80.5
2022-10-23T12:43:09.389Z,80.5
2022-10-23T12:44:19.512Z,80.8
2022-10-23T12:45:29.637Z,80.7
2022-10-23T12:46:39.743Z,81.4
2022-10-23T12:47:49.869Z,81.7
2022-10-23T12:48:59.993Z,80.5
2022-10-23T12:50:10.101Z,79.8
2022-10-23T12:51:19.229Z,80
2022-10-23T12:52:29.352Z,80.3
2022-10-23T12:53:39.470Z,80.5
2022-10-23T12:54:49.596Z,80.5
2022-10-23T12:55:59.699Z,80.7
2022-10-23T12:57:09.823Z,80.5
2022-10-23T12:58:19.948Z,79.6
2022-10-23T12:59:30.056Z,80.2
2022-10-23T13:00:40.174Z,80.6
2022-10-23T13:01:50.298Z,80.8
2022-10-23T13:04:10.523Z,79
2022-10-23T13:05:20.643Z,79.2
2022-10-23T13:06:30.894Z,78.6
2022-10-23T13:07:41.001Z,78.8
2022-10-23T13:08:51.127Z,78.8
2022-10-23T13:10:00.263Z,78.5
2022-10-23T13:11:10.387Z,79.8
2022-10-23T13:12:20.488Z,79.2
2022-10-23T13:13:30.610Z,79.1
2022-10-23T13:14:40.738Z,79.4
2022-10-23T13:15:50.845Z,79.4
2022-10-23T13:17:00.968Z,79.2
2022-10-23T13:18:11.079Z,78.6
2022-10-23T13:19:21.201Z,79
2022-10-23T13:20:31.324Z,79.7
2022-10-23T13:21:41.440Z,79.2
2022-10-23T13:22:51.563Z,78.7
2022-10-23T13:25:11.783Z,79.4
2022-10-23T13:26:20.920Z,79.3
2022-10-23T13:27:31.303Z,79.1
2022-10-23T13:28:41.164Z,78.8
2022-10-23T13:29:51.286Z,79.4
2022-10-23T13:31:01.405Z,79.9
2022-10-23T13:32:11.508Z,79.6
2022-10-23T13:33:21.632Z,78.9
2022-10-23T13:35:41.860Z,78.8
2022-10-23T13:36:51.987Z,78.8
2022-10-23T13:38:02.099Z,79.5
2022-10-23T13:39:12.221Z,79.5
2022-10-23T13:40:21.372Z,79.9
2022-10-23T13:41:30.497Z,79.7
2022-10-23T13:42:40.621Z,79.9
2022-10-23T13:43:50.732Z,80
2022-10-23T13:44:59.871Z,79.9
2022-10-23T13:46:09.987Z,79.7
2022-10-23T13:47:19.380Z,79.9
2022-10-23T13:48:29.254Z,79.6
2022-10-23T13:49:39.361Z,79.7
2022-10-23T13:50:49.486Z,79.5
2022-10-23T13:51:59.594Z,79.6
2022-10-23T13:53:09.717Z,80.1
2022-10-23T13:54:19.846Z,79.9
2022-10-23T13:55:29.949Z,79.7
2022-10-23T13:56:40.323Z,79.9
2022-10-23T13:57:50.182Z,79.6
2022-10-23T13:59:00.317Z,79.9
2022-10-23T14:00:10.418Z,79.7
2022-10-23T14:01:20.541Z,80.2
2022-10-23T14:02:29.924Z,80.3
2022-10-23T14:03:39.799Z,80.3
2022-10-23T14:04:49.903Z,80.2
2022-10-23T14:06:00.023Z,81
2022-10-23T14:07:10.144Z,80.9
2022-10-23T14:08:20.264Z,81.1
2022-10-23T14:09:29.415Z,81.1
2022-10-23T14:10:38.550Z,81
2022-10-23T14:11:47.678Z,81.8
2022-10-23T14:12:56.830Z,81.7
2022-10-23T14:14:07.183Z,81.6
2022-10-23T14:15:17.046Z,82.1
2022-10-23T14:16:27.170Z,82.2
2022-10-23T14:17:37.287Z,81.7
2022-10-23T14:18:47.419Z,82.5
2022-10-23T14:19:57.527Z,82.4
2022-10-23T14:21:07.895Z,82.6
2022-10-23T14:22:17.759Z,82.8
2022-10-23T14:23:27.879Z,82.9
2022-10-23T14:24:38.247Z,82.9
2022-10-23T14:25:48.120Z,83
2022-10-23T14:26:58.224Z,83.1
2022-10-23T14:28:07.357Z,83.7
2022-10-23T14:29:17.474Z,83.7
2022-10-23T14:30:27.599Z,84.1
2022-10-23T14:31:37.717Z,84
2022-10-23T14:32:47.840Z,83.5
2022-10-23T14:33:57.961Z,84.1
2022-10-23T14:35:08.079Z,84.3
2022-10-23T14:36:18.187Z,84
2022-10-23T14:37:28.308Z,84.1
2022-10-23T14:38:38.433Z,84.2
2022-10-23T14:39:48.549Z,84.3
2022-10-23T14:40:58.662Z,84.4
2022-10-23T14:42:08.783Z,84.6
2022-10-23T14:43:17.920Z,84.5
2022-10-23T14:45:38.142Z,84.9
2022-10-23T14:46:48.272Z,85.1
2022-10-23T14:47:58.373Z,85.5
2022-10-23T14:49:08.492Z,85.7
2022-10-23T14:50:18.615Z,86
2022-10-23T14:51:28.743Z,85.5
2022-10-23T14:52:38.857Z,85.2
2022-10-23T14:53:48.972Z,85.6
2022-10-23T14:54:59.091Z,85.6
2022-10-23T14:56:09.208Z,85.7
2022-10-23T14:57:19.314Z,86.2
2022-10-23T14:58:28.451Z,86
2022-10-23T14:59:38.574Z,86.3
2022-10-23T15:00:48.696Z,86.3
2022-10-23T15:01:58.802Z,86.3
2022-10-23T15:03:08.930Z,86.3
2022-10-23T15:04:19.051Z,86.7
2022-10-23T15:05:29.171Z,86.9
2022-10-23T15:06:39.278Z,87.2
2022-10-23T15:07:49.402Z,87.2
2022-10-23T15:08:59.508Z,87.4
2022-10-23T15:10:09.881Z,87.7
2022-10-23T15:11:19.743Z,87.7
2022-10-23T15:12:29.863Z,87.9
2022-10-23T15:13:39.001Z,88.4
2022-10-23T15:14:49.110Z,88.7
2022-10-23T15:15:59.234Z,88.6
2022-10-23T15:17:09.350Z,88.8
2022-10-23T15:18:19.474Z,88.8
2022-10-23T15:19:29.580Z,88.8
2022-10-23T15:20:39.700Z,89
2022-10-23T15:21:49.826Z,89
2022-10-23T15:22:59.948Z,88.6
2022-10-23T15:24:10.051Z,89
2022-10-23T15:25:20.175Z,89.2
2022-10-23T15:26:30.300Z,89.3
2022-10-23T15:27:40.415Z,89.3
2022-10-23T15:28:49.813Z,89.2
2022-10-23T15:29:59.655Z,89.4
2022-10-23T15:31:09.778Z,89.3
2022-10-23T15:32:19.902Z,89.1
2022-10-23T15:33:30.008Z,89.4
2022-10-23T15:34:40.143Z,89.6
2022-10-23T15:35:50.512Z,89.5
2022-10-23T15:37:00.367Z,89.4
2022-10-23T15:38:10.492Z,89.8
2022-10-23T15:39:20.594Z,90.6
2022-10-23T15:40:30.719Z,90.4
2022-10-23T15:41:40.834Z,90.5
2022-10-23T15:42:50.967Z,90.5
2022-10-23T15:44:00.099Z,90.8
2022-10-23T15:45:10.200Z,90.8
2022-10-23T15:46:20.329Z,90.6
2022-10-23T15:47:30.441Z,91
2022-10-23T15:48:40.551Z,91.2
2022-10-23T15:49:50.673Z,91.1
2022-10-23T15:51:00.799Z,91.3
2022-10-23T15:52:10.922Z,91.2
2022-10-23T15:53:21.034Z,91.5
2022-10-23T15:54:31.156Z,91.3
2022-10-23T15:55:41.258Z,91.4
2022-10-23T15:56:51.380Z,91.4
2022-10-23T15:58:01.504Z,91.5
2022-10-23T15:59:10.625Z,91.3
2022-10-23T16:00:20.751Z,91.4
2022-10-23T16:01:30.872Z,91.4
2022-10-23T16:02:41.232Z,91.3
2022-10-23T16:03:51.099Z,91.5
2022-10-23T16:05:01.225Z,91.6
2022-10-23T16:06:11.347Z,91.8
2022-10-23T16:07:21.703Z,91.9
2022-10-23T16:08:31.579Z,91.8
2022-10-23T16:09:41.698Z,92.3
2022-10-23T16:10:51.802Z,92.1
2022-10-23T16:12:01.923Z,91.8
2022-10-23T16:13:12.039Z,91.9
2022-10-23T16:14:21.173Z,91.9
2022-10-23T16:15:31.297Z,92.2
2022-10-23T16:16:41.417Z,92
2022-10-23T16:17:51.527Z,92
2022-10-23T16:19:01.655Z,91.9
2022-10-23T16:20:11.775Z,91.9
2022-10-23T16:21:21.880Z,92
2022-10-23T16:22:32.008Z,92.2
2022-10-23T16:23:42.369Z,92
2022-10-23T16:24:52.235Z,92.1
2022-10-23T16:27:12.720Z,92.3
2022-10-23T16:28:22.598Z,92.4
2022-10-23T16:30:41.838Z,92.3